Map

Track Data

SID SEASON NUMBER BASIN SUBBASIN NAME ISO_TIME NATURE LAT LON WMO_WIND WMO_PRES WMO_AGENCY TRACK_TYPE DIST2LAND LANDFALL IFLAG USA_AGENCY USA_ATCF_ID USA_LAT USA_LON USA_RECORD USA_STATUS USA_WIND USA_PRES USA_SSHS USA_R34_NE USA_R34_SE USA_R34_SW USA_R34_NW USA_R50_NE USA_R50_SE USA_R50_SW USA_R50_NW USA_R64_NE USA_R64_SE USA_R64_SW USA_R64_NW USA_POCI USA_ROCI USA_RMW USA_EYE TOKYO_LAT TOKYO_LON TOKYO_GRADE TOKYO_WIND TOKYO_PRES TOKYO_R50_DIR TOKYO_R50_LONG TOKYO_R50_SHORT TOKYO_R30_DIR TOKYO_R30_LONG TOKYO_R30_SHORT TOKYO_LAND CMA_LAT CMA_LON CMA_CAT CMA_WIND CMA_PRES HKO_LAT HKO_LON HKO_CAT HKO_WIND HKO_PRES NEWDELHI_LAT NEWDELHI_LON NEWDELHI_GRADE NEWDELHI_WIND NEWDELHI_PRES NEWDELHI_CI NEWDELHI_DP NEWDELHI_POCI REUNION_LAT REUNION_LON REUNION_TYPE REUNION_WIND REUNION_PRES REUNION_TNUM REUNION_CI REUNION_RMW REUNION_R34_NE REUNION_R34_SE REUNION_R34_SW REUNION_R34_NW REUNION_R50_NE REUNION_R50_SE REUNION_R50_SW REUNION_R50_NW REUNION_R64_NE REUNION_R64_SE REUNION_R64_SW REUNION_R64_NW BOM_LAT BOM_LON BOM_TYPE BOM_WIND BOM_PRES BOM_TNUM BOM_CI BOM_RMW BOM_R34_NE BOM_R34_SE BOM_R34_SW BOM_R34_NW BOM_R50_NE BOM_R50_SE BOM_R50_SW BOM_R50_NW BOM_R64_NE BOM_R64_SE BOM_R64_SW BOM_R64_NW BOM_ROCI BOM_POCI BOM_EYE BOM_POS_METHOD BOM_PRES_METHOD NADI_LAT NADI_LON NADI_CAT NADI_WIND NADI_PRES WELLINGTON_LAT WELLINGTON_LON WELLINGTON_WIND WELLINGTON_PRES DS824_LAT DS824_LON DS824_STAGE DS824_WIND DS824_PRES TD9636_LAT TD9636_LON TD9636_STAGE TD9636_WIND TD9636_PRES TD9635_LAT TD9635_LON TD9635_WIND TD9635_PRES TD9635_ROCI NEUMANN_LAT NEUMANN_LON NEUMANN_CLASS NEUMANN_WIND NEUMANN_PRES MLC_LAT MLC_LON MLC_CLASS MLC_WIND MLC_PRES USA_GUST BOM_GUST BOM_GUST_PER REUNION_GUST REUNION_GUST_PER USA_SEAHGT USA_SEARAD_NE USA_SEARAD_SE USA_SEARAD_SW USA_SEARAD_NW STORM_SPEED STORM_DIR
1982355S09060 1983 106 SI MM DADAFY 1982-12-21 00:00:00 TS -8.90000 60.1000 main 1204 1204 O___________O_ jtwc_sh SH061983 -8.90000 60.1000 20 -1 -8.90000 60.1000 TC 20 14 117
1982355S09060 1983 106 SI MM DADAFY 1982-12-21 03:00:00 TS -9.21025 60.7173 main 1253 1244 P___________P_ SH061983 -9.21025 60.7173 22 -1 -9.21025 60.7173 TC 22 13 117
1982355S09060 1983 106 SI MM DADAFY 1982-12-21 06:00:00 TS -9.50000 61.3000 main 1247 1237 O___________O_ jtwc_sh SH061983 -9.50000 61.3000 25 -1 -9.50000 61.3000 TC 25 12 117
1982355S09060 1983 106 SI MM DADAFY 1982-12-21 09:00:00 TS -9.75739 61.8226 main 1234 1229 P___________P_ SH061983 -9.75739 61.8226 25 -1 -9.75739 61.8226 TC 25 11 117
1982355S09060 1983 106 SI MM DADAFY 1982-12-21 12:00:00 TS -10.0000 62.3000 main 1233 1226 O___________O_ jtwc_sh SH061983 -10.0000 62.3000 25 -1 -10.0000 62.3000 TC 25 11 118
1982355S09060 1983 106 SI MM DADAFY 1982-12-21 15:00:00 TS -10.2500 62.7725 main 1235 1220 P___________P_ SH061983 -10.2500 62.7725 25 -1 -10.2500 62.7725 TC 25 10 119
1982355S09060 1983 106 SI MM DADAFY 1982-12-21 18:00:00 TS -10.5000 63.2000 main 1225 1216 O___________O_ jtwc_sh SH061983 -10.5000 63.2000 25 -1 -10.5000 63.2000 TC 25 9 123
1982355S09060 1983 106 SI MM DADAFY 1982-12-21 21:00:00 TS -10.7649 63.5800 main 1217 1209 P___________P_ SH061983 -10.7649 63.5800 25 -1 -10.7649 63.5800 TC 25 9 126
1982355S09060 1983 106 SI MM DADAFY 1982-12-22 00:00:00 TS -11.0000 63.9000 main 1215 1208 O___________O_ jtwc_sh SH061983 -11.0000 63.9000 25 -1 -11.0000 63.9000 TC 25 7 125
1982355S09060 1983 106 SI MM DADAFY 1982-12-22 03:00:00 TS -11.1724 64.1651 main 1214 1211 P___________P_ SH061983 -11.1724 64.1651 25 -1 -11.1724 64.1651 TC 25 6 121
1982355S09060 1983 106 SI MM DADAFY 1982-12-22 06:00:00 TS -11.3000 64.4000 main 1218 1215 O___________O_ jtwc_sh SH061983 -11.3000 64.4000 25 -1 -11.3000 64.4000 TC 25 5 117
1982355S09060 1983 106 SI MM DADAFY 1982-12-22 09:00:00 TS -11.4075 64.6425 main 1221 1221 P___________P_ SH061983 -11.4075 64.6425 25 -1 -11.4075 64.6425 TC 25 5 112
1982355S09060 1983 106 SI MM DADAFY 1982-12-22 12:00:00 TS -11.5000 64.9000 main 1232 1232 O___________O_ jtwc_sh SH061983 -11.5000 64.9000 25 -1 -11.5000 64.9000 TC 25 6 110
1982355S09060 1983 106 SI MM DADAFY 1982-12-22 15:00:00 TS -11.6000 65.1925 main 1244 1244 P___________P_ SH061983 -11.6000 65.1925 25 -1 -11.6000 65.1925 TC 25 6 109
1982355S09060 1983 106 SI MM DADAFY 1982-12-22 18:00:00 TS -11.7000 65.5000 main 1256 1256 O___________O_ jtwc_sh SH061983 -11.7000 65.5000 25 -1 -11.7000 65.5000 TC 25 6 109
1982355S09060 1983 106 SI MM DADAFY 1982-12-22 21:00:00 TS -11.8075 65.8075 main 1269 1268 P___________P_ SH061983 -11.8075 65.8075 25 -1 -11.8075 65.8075 TC 25 6 109
1982355S09060 1983 106 SI MM DADAFY 1982-12-23 00:00:00 TS -11.9000 66.1000 main 1283 1283 O___________O_ jtwc_sh SH061983 -11.9000 66.1000 25 -1 -11.9000 66.1000 TC 25 6 106
1982355S09060 1983 106 SI MM DADAFY 1982-12-23 03:00:00 TS -11.9575 66.3575 main 1298 1298 P___________P_ SH061983 -11.9575 66.3575 25 -1 -11.9575 66.3575 TC 25 5 102
1982355S09060 1983 106 SI MM DADAFY 1982-12-23 06:00:00 TS -12.0000 66.6000 main 1313 1313 O___________O_ jtwc_sh SH061983 -12.0000 66.6000 25 -1 -12.0000 66.6000 TC 25 5 101
1982355S09060 1983 106 SI MM DADAFY 1982-12-23 09:00:00 TS -12.0500 66.8425 main 1328 1328 P___________P_ SH061983 -12.0500 66.8425 25 -1 -12.0500 66.8425 TC 25 5 102
1982355S09060 1983 106 SI MM DADAFY 1982-12-23 12:00:00 TS -12.1000 67.1000 main 1344 1344 O___________O_ jtwc_sh SH061983 -12.1000 67.1000 25 -1 -12.1000 67.1000 TC 25 6 100
1982355S09060 1983 106 SI MM DADAFY 1982-12-23 15:00:00 TS -12.1425 67.4000 main 1368 1368 P___________P_ SH061983 -12.1425 67.4000 25 -1 -12.1425 67.4000 TC 25 6 100
1982355S09060 1983 106 SI MM DADAFY 1982-12-23 18:00:00 TS -12.2000 67.7000 main 1385 1385 O___________O_ jtwc_sh SH061983 -12.2000 67.7000 25 -1 -12.2000 67.7000 TC 25 6 105
1982355S09060 1983 106 SI MM DADAFY 1982-12-23 21:00:00 TS -12.2850 67.9575 main 1403 1403 P___________P_ SH061983 -12.2850 67.9575 25 -1 -12.2850 67.9575 TC 25 5 112
1982355S09060 1983 106 SI MM DADAFY 1982-12-24 00:00:00 TS -12.4000 68.2000 main 1413 1413 O___________O_ jtwc_sh SH061983 -12.4000 68.2000 25 -1 -12.4000 68.2000 TC 25 6 117
1982355S09060 1983 106 SI MM DADAFY 1982-12-24 03:00:00 TS -12.5425 68.4650 main 1431 1431 P___________P_ SH061983 -12.5425 68.4650 25 -1 -12.5425 68.4650 TC 25 7 87
1982355S09060 1983 106 SI MM DADAFY 1982-12-24 06:00:00 TS -12.3600 68.9600 28 997 reunion main 1481 1481 O____O____O_O_ jtwc_sh SH061983 -12.7000 68.7000 25 -1 -11.0000 70.0000 2 28 997 2.50000 2.50000 -11.0000 70.0000 2 35 -12.7000 68.7000 TC 25 8 79
1982355S09060 1983 106 SI MM DADAFY 1982-12-24 09:00:00 TS -12.3956 69.2577 main 1507 1507 P____P____P_P_ SH061983 -12.8500 68.8725 27 -1 -11.5100 69.9901 2 28 997 -11.4637 70.0657 2 35 -12.8500 68.8725 TC 27 5 113
1982355S09060 1983 106 SI MM DADAFY 1982-12-24 12:00:00 TS -12.5568 69.4469 28 997 reunion main 1503 1503 O____O____P_O_ jtwc_sh SH061983 -13.0000 69.0000 30 -1 -12.0000 70.0000 2 28 997 2.50000 2.50000 -11.9320 70.0854 2 35 -13.0000 69.0000 TC 30 5 143
1982355S09060 1983 106 SI MM DADAFY 1982-12-24 15:00:00 TS -12.7879 69.5612 main 1508 1480 P____P____P_P_ SH061983 -13.1425 69.1075 30 -1 -12.4574 70.0172 2 28 997 -12.4092 70.0125 2 35 -13.1425 69.1075 TC 30 6 172
1982355S09060 1983 106 SI MM DADAFY 1982-12-24 18:00:00 TS -13.1000 69.5250 28 997 reunion main 1480 1453 O____O____O_O_ jtwc_sh SH061983 -13.3000 69.2000 30 -1 -12.9000 69.9000 2 28 997 2.50000 2.50000 -12.9000 69.8000 2 35 -13.3000 69.2000 TC 30 7 196
1982355S09060 1983 106 SI MM DADAFY 1982-12-24 21:00:00 TS -13.4307 69.3716 main 1453 1411 P____P____P_P_ SH061983 -13.4850 69.2851 32 -1 -13.3502 69.4878 2 32 994 -13.4025 69.4284 2 36 -13.4850 69.2851 TC 32 7 205
1982355S09060 1983 106 SI MM DADAFY 1982-12-25 00:00:00 TS -13.7727 69.1975 36 991 reunion main 1411 1384 O____O____P_O_ jtwc_sh SH061983 -13.7000 69.4000 35 0 -13.8000 69.0000 3 36 991 3.00000 3.00000 -13.8909 68.9901 2 37 -13.7000 69.4000 TC 35 8 201
1982355S09060 1983 106 SI MM DADAFY 1982-12-25 03:00:00 TS -14.1265 69.0967 main 1384 1367 P____P____P_P_ SH061983 -13.9425 69.5925 37 0 -14.2875 68.5952 3 36 991 -14.3336 68.6065 2 38 -13.9425 69.5925 TC 37 7 188
1982355S09060 1983 106 SI MM DADAFY 1982-12-25 06:00:00 TS -14.4500 69.1000 36 991 reunion main 1367 1357 O____O____O_O_ jtwc_sh SH061983 -14.2000 69.8000 40 0 -14.7000 68.4000 3 36 991 3.00000 3.00000 -14.7000 68.4000 2 40 -14.2000 69.8000 TC 40 6 166
1982355S09060 1983 106 SI MM DADAFY 1982-12-25 09:00:00 TS -14.7084 69.2501 main 1370 1365 P____P____P_P_ SH061983 -14.4650 69.9575 42 0 -14.9375 68.5598 3 36 991 -14.9662 68.5257 2 42 -14.4650 69.9575 TC 42 6 141
1982355S09060 1983 106 SI MM DADAFY 1982-12-25 12:00:00 TS -14.9138 69.4847 36 991 reunion main 1378 1373 O____O____P_O_ jtwc_sh SH061983 -14.7000 70.1000 45 0 -15.1000 68.9000 3 36 991 3.00000 3.00000 -15.1551 68.8387 2 45 -14.7000 70.1000 TC 45 6 128
1982355S09060 1983 106 SI MM DADAFY 1982-12-25 15:00:00 TS -15.0803 69.7356 main 1387 1387 P____P____P_P_ SH061983 -14.8575 70.2501 45 0 -15.3150 69.1850 3 40 987 -15.2914 69.2574 2 47 -14.8575 70.2501 TC 45 6 122
1982355S09060 1983 106 SI MM DADAFY 1982-12-25 18:00:00 TS -15.2250 70.0000 44 984 reunion main 1411 1407 O____O____O_O_ jtwc_sh SH061983 -15.0000 70.4000 45 0 -15.5000 69.5000 3 44 984 3.50000 3.50000 -15.4000 69.7000 2 50 -15.0000 70.4000 TC 45 6 121
1982355S09060 1983 106 SI MM DADAFY 1982-12-25 21:00:00 TS -15.3794 70.2479 main 1421 1421 P____P____P_P_ SH061983 -15.1925 70.5425 47 0 -15.6149 69.8351 3 48 980 -15.5177 70.0714 2 52 -15.1925 70.5425 TC 47 6 122
1982355S09060 1983 106 SI MM DADAFY 1982-12-26 00:00:00 TS -15.5288 70.5113 52 976 reunion main 1446 1446 O____O____P_O_ jtwc_sh SH061983 -15.4000 70.7000 50 0 -15.7000 70.2000 3 52 976 4.00000 4.00000 -15.6153 70.4452 2 55 -15.4000 70.7000 TC 50 6 119
1982355S09060 1983 106 SI MM DADAFY 1982-12-26 03:00:00 TS -15.6744 70.8010 main 1467 1467 P____P____P_P_ SH061983 -15.5925 70.8925 50 0 -15.8076 70.6225 3 52 976 -15.7052 70.7964 2 57 -15.5925 70.8925 TC 50 6 119
1982355S09060 1983 106 SI MM DADAFY 1982-12-26 06:00:00 TS -15.8250 71.0750 52 976 reunion main 1492 1488 O____O____O_O_ jtwc_sh SH061983 -15.8000 71.1000 50 0 -15.9000 71.0000 3 52 976 4.00000 4.00000 -15.8000 71.1000 2 60 -15.8000 71.1000 TC 50 6 124
1982355S09060 1983 106 SI MM DADAFY 1982-12-26 09:00:00 TS -15.9917 71.2938 main 1504 1504 P____P____P_P_ SH061983 -16.0500 71.3075 52 0 -15.9573 71.2226 3 52 976 -15.9094 71.3376 2 60 -16.0500 71.3075 TC 52 5 130
1982355S09060 1983 106 SI MM DADAFY 1982-12-26 12:00:00 TS -16.1568 71.4813 52 976 reunion main 1517 1517 O____O____P_O_ jtwc_sh SH061983 -16.3000 71.5000 55 0 -16.0000 71.4000 3 52 976 4.00000 4.00000 -16.0272 71.5252 2 60 -16.3000 71.5000 TC 55 5 130
1982355S09060 1983 106 SI MM DADAFY 1982-12-26 15:00:00 TS -16.2941 71.6638 main 1533 1529 P____P____P_P_ SH061983 -16.5000 71.6576 55 0 -16.0201 71.6651 3 52 976 -16.1564 71.6751 2 60 -16.5000 71.6576 TC 55 4 132
1982355S09060 1983 106 SI MM DADAFY 1982-12-26 18:00:00 TS -16.4500 71.8250 52 976 reunion main 1540 1536 O____O____O_O_ jtwc_sh SH061983 -16.7000 71.8000 55 0 -16.1000 71.9000 3 52 976 4.00000 4.00000 -16.3000 71.8000 2 60 -16.7000 71.8000 TC 55 5 142
1982355S09060 1983 106 SI MM DADAFY 1982-12-26 21:00:00 TS -16.6611 71.9640 main 1550 1546 P____P____P_P_ SH061983 -16.9425 71.9500 57 0 -16.3275 72.0300 3 52 976 -16.4321 71.9258 2 60 -16.9425 71.9500 TC 57 5 151
1982355S09060 1983 106 SI MM DADAFY 1982-12-27 00:00:00 TS -16.8956 72.0826 52 976 reunion main 1553 1550 O____O____P_O_ jtwc_sh SH061983 -17.2000 72.1000 60 0 -16.6000 72.1000 3 52 976 4.00000 4.00000 -16.5824 72.0302 2 60 -17.2000 72.1000 TC 60 5 154
1982355S09060 1983 106 SI MM DADAFY 1982-12-27 03:00:00 TS -17.1091 72.1980 main 1557 1554 P____P____P_P_ SH061983 -17.4425 72.2575 60 0 -16.7850 72.1576 3 52 976 -16.7665 72.1195 2 60 -17.4425 72.2575 TC 60 5 155
1982355S09060 1983 106 SI MM DADAFY 1982-12-27 06:00:00 TS -17.3500 72.3000 52 976 reunion main 1562 1556 O____O____O_O_ jtwc_sh SH061983 -17.7000 72.4000 60 0 -17.0000 72.2000 3 52 976 4.00000 4.00000 -17.0000 72.2000 2 60 -17.7000 72.4000 TC 60 6 161
1982355S09060 1983 106 SI MM DADAFY 1982-12-27 09:00:00 TS -17.6587 72.3908 main 1561 1556 P____P____P_P_ SH061983 -18.0000 72.5150 62 0 -17.3350 72.2351 3 52 976 -17.2997 72.2982 2 60 -18.0000 72.5150 TC 62 7 166
1982355S09060 1983 106 SI MM DADAFY 1982-12-27 12:00:00 TS -17.9869 72.4718 52 976 reunion main 1564 1560 O____O____P_O_ jtwc_sh SH061983 -18.3000 72.6000 65 1 -17.7000 72.3000 3 52 976 4.00000 4.00000 -17.6475 72.3872 2 60 -18.3000 72.6000 TC 65 6 165
1982355S09060 1983 106 SI MM DADAFY 1982-12-27 15:00:00 TS -18.2785 72.5612 main 1568 1562 P____P____P_P_ SH061983 -18.5500 72.6650 65 1 -17.9925 72.4574 3 52 976 -18.0216 72.4576 2 60 -18.5500 72.6650 TC 65 6 166
1982355S09060 1983 106 SI MM DADAFY 1982-12-27 18:00:00 TS -18.5750 72.6250 52 976 reunion main 1562 1557 O____O____O_O_ jtwc_sh SH061983 -18.8000 72.7000 65 1 -18.3000 72.6000 3 52 976 4.00000 4.00000 -18.4000 72.5000 2 60 -18.8000 72.7000 TC 65 6 173
1982355S09060 1983 106 SI MM DADAFY 1982-12-27 21:00:00 TS -18.8972 72.6431 main 1557 1553 P____P____P_P_ SH061983 -19.0850 72.7075 65 1 -18.6850 72.6375 3 52 976 -18.7337 72.5199 2 60 -19.0850 72.7075 TC 65 7 178
1982355S09060 1983 106 SI MM DADAFY 1982-12-28 00:00:00 TS -19.2425 72.6274 52 976 reunion main 1553 1548 O____O____P_O_ jtwc_sh SH061983 -19.4000 72.7000 65 1 -19.1000 72.6000 3 52 976 4.00000 4.00000 -19.0699 72.5098 2 60 -19.4000 72.7000 TC 65 976 7 183
1982355S09060 1983 106 SI MM DADAFY 1982-12-28 03:00:00 TS -19.5941 72.5962 main 1548 1544 P____P____P_P_ SH061983 -19.7350 72.7000 65 1 -19.4850 72.5150 3 52 976 -19.4212 72.4698 2 60 -19.7350 72.7000 TC 65 7 186
1982355S09060 1983 106 SI MM DADAFY 1982-12-28 06:00:00 TS -19.9750 72.5500 52 976 reunion main 1544 1531 O____O____O_O_ jtwc_sh SH061983 -20.1000 72.7000 65 1 -19.9000 72.4000 3 52 976 4.00000 4.00000 -19.8000 72.4000 2 60 -20.1000 72.7000 TC 65 8 186
1982355S09060 1983 106 SI MM DADAFY 1982-12-28 09:00:00 TS -20.4036 72.5084 main 1531 1520 P____P____P_P_ SH061983 -20.4850 72.7149 62 0 -20.4150 72.3000 3 52 976 -20.2294 72.3040 2 60 -20.4850 72.7149 TC 62 9 186
1982355S09060 1983 106 SI MM DADAFY 1982-12-28 12:00:00 TS -20.8463 72.4451 52 976 reunion main 1520 1520 O____O____P_O_ jtwc_sh SH061983 -20.9000 72.7000 60 0 -20.9000 72.2000 3 52 976 4.00000 4.00000 -20.6851 72.1803 2 60 -20.9000 72.7000 TC 60 9 190
1982355S09060 1983 106 SI MM DADAFY 1982-12-28 15:00:00 TS -21.2639 72.3503 main 1520 1501 P____P____P_P_ SH061983 -21.3425 72.6299 57 0 -21.2225 72.0999 3 52 976 -21.1482 72.0415 2 60 -21.3425 72.6299 TC 57 9 194
1982355S09060 1983 106 SI MM DADAFY 1982-12-28 18:00:00 TS -21.6750 72.2250 52 976 reunion main 1502 1493 O____O____O_O_ jtwc_sh SH061983 -21.8000 72.5000 55 0 -21.5000 72.0000 3 52 976 4.00000 4.00000 -21.6000 71.9000 2 60 -21.8000 72.5000 TC 55 9 197
1982355S09060 1983 106 SI MM DADAFY 1982-12-28 21:00:00 TS -22.0815 72.0802 main 1495 1478 P____P____P_P_ SH061983 -22.2500 72.3299 50 0 -21.8199 71.9222 3 52 976 -22.0063 71.7389 2 60 -22.2500 72.3299 TC 50 9 200
1982355S09060 1983 106 SI MM DADAFY 1982-12-29 00:00:00 TS -22.5000 71.8958 52 976 reunion main 1479 1463 O____O____P_O_ jtwc_sh SH061983 -22.7000 72.1000 45 0 -22.2000 71.8000 3 52 976 4.00000 4.00000 -22.4001 71.5834 2 60 -22.7000 72.1000 TC 45 10 204
1982355S09060 1983 106 SI MM DADAFY 1982-12-29 03:00:00 TS -22.9447 71.6566 main 1465 1442 P____P____P_P_ SH061983 -23.1500 71.8149 42 0 -22.6852 71.5356 3 52 976 -22.7938 71.4611 2 60 -23.1500 71.8149 TC 42 10 206
1982355S09060 1983 106 SI MM DADAFY 1982-12-29 06:00:00 TS -23.4000 71.4250 52 976 reunion main 1444 1434 O____O____O_O_ jtwc_sh SH061983 -23.6000 71.5000 40 0 -23.2000 71.3000 3 52 976 4.00000 4.00000 -23.2000 71.4000 2 60 -23.6000 71.5000 TC 40 10 203
1982355S09060 1983 106 SI MM DADAFY 1982-12-29 09:00:00 TS -23.8520 71.2283 main 1436 1435 P____P____P_P_ SH061983 -24.0576 71.1404 37 0 -23.6573 71.2176 3 48 980 -23.6355 71.4147 2 57 -24.0576 71.1404 TC 37 9 196
1982355S09060 1983 106 SI MM DADAFY 1982-12-29 12:00:00 MX -24.2962 71.1487 44 984 reunion main 1438 1438 O____O____P_O_ jtwc_sh SH061983 -24.5000 70.9000 35 0 -24.1000 71.3000 5 44 984 3.50000 3.50000 -24.0848 71.4948 2 55 -24.5000 70.9000 TC 35 9 179
1982355S09060 1983 106 SI MM DADAFY 1982-12-29 15:00:00 MX -24.7303 71.2337 main 1460 1460 P____P____P_P_ SH061983 -24.9146 70.8800 32 -1 -24.5501 71.5473 5 40 987 -24.5417 71.6276 2 52 -24.9146 70.8800 TC 32 9 157
1982355S09060 1983 106 SI MM DADAFY 1982-12-29 18:00:00 MX -25.1286 71.5286 36 991 reunion main 1502 1502 O____O____O_O_ jtwc_sh SH061983 -25.3000 71.1000 30 -1 -25.0000 71.9000 5 36 991 3.00000 3.00000 -25.0000 71.8000 2 50 -25.3000 71.1000 TC 30 10 140
1982355S09060 1983 106 SI MM DADAFY 1982-12-29 21:00:00 MX -25.5076 71.9438 main 1555 1555 P____P____P_P_ SH061983 -25.6582 71.5393 30 -1 -25.4427 72.2872 5 36 991 -25.4219 72.0050 2 47 -25.6582 71.5393 TC 30 11 136
1982355S09060 1983 106 SI MM DADAFY 1982-12-30 00:00:00 MX -25.8992 72.3568 36 991 reunion main 1617 1617 O____O____P_O_ jtwc_sh SH061983 -26.0000 72.1000 30 -1 -25.9000 72.6000 5 36 991 3.00000 3.00000 -25.8479 72.2421 2 45 -26.0000 72.1000 TC 30 10 145
1982355S09060 1983 106 SI MM DADAFY 1982-12-30 03:00:00 ET -26.3499 72.5894 main 1650 1650 _____P____P___ SH061983 -1 -26.3998 72.6955 5 36 991 -26.3000 72.4832 2 42 TC 10 162
1982355S09060 1983 106 SI MM DADAFY 1982-12-30 06:00:00 ET -26.8500 72.7000 36 991 reunion main 1679 1679 _____O____O___ -1 -26.9000 72.7000 5 36 991 3.00000 3.00000 -26.8000 72.7000 2 40 10 170
1982355S09060 1983 106 SI MM DADAFY 1982-12-30 09:00:00 ET -27.3749 72.7847 main 1714 1714 _____P____P___ -1 -27.3350 72.7427 5 36 991 -27.4148 72.8266 2 40 11 172
1982355S09060 1983 106 SI MM DADAFY 1982-12-30 12:00:00 ET -27.9359 72.8647 36 991 reunion main 1746 1746 _____O____P___ -1 -27.8000 72.8000 5 36 991 3.00000 3.00000 -28.0718 72.9294 2 40 12 173
1982355S09060 1983 106 SI MM DADAFY 1982-12-30 15:00:00 ET -28.5589 72.9563 main 1789 1789 _____P____P___ -1 -28.3999 72.8702 5 36 991 -28.7179 73.0423 2 40 12 170
1982355S09060 1983 106 SI MM DADAFY 1982-12-30 18:00:00 ET -29.1500 73.1000 36 991 reunion main 1823 1823 _____O____O___ -1 -29.0000 73.0000 5 36 991 3.00000 3.00000 -29.3000 73.2000 2 40 11 165
1982355S09060 1983 106 SI MM DADAFY 1982-12-30 21:00:00 ET -29.6232 73.2837 main 1867 1867 _____P____P___ -1 -29.4648 73.1980 5 36 991 -29.7816 73.3693 2 40 10 157
1982355S09060 1983 106 SI MM DADAFY 1982-12-31 00:00:00 ET -30.0447 73.5494 36 991 reunion main 1906 1906 _____O____P___ -1 -29.9000 73.5000 5 36 991 3.00000 3.00000 -30.1894 73.5987 2 40 10 148
1982355S09060 1983 106 SI MM DADAFY 1982-12-31 03:00:00 ET -30.4787 73.9092 main 1967 1967 _____P____P___ -1 -30.4297 73.8897 5 36 991 -30.5276 73.9287 2 40 11 138
1982355S09060 1983 106 SI MM DADAFY 1982-12-31 06:00:00 ET -30.8500 74.4000 36 991 reunion main 2026 2026 _____O____O___ -1 -30.9000 74.4000 5 36 991 3.00000 3.00000 -30.8000 74.4000 2 40 12 123
1982355S09060 1983 106 SI MM DADAFY 1982-12-31 09:00:00 ET -31.1177 75.0465 main 2033 2024 _____P____P___ -1 -31.2101 75.0202 5 -31.0252 75.0728 2 38 13 110
1982355S09060 1983 106 SI MM DADAFY 1982-12-31 12:00:00 TS -31.2930 75.7903 reunion main 2029 2024 _____O____P___ -1 -31.4000 75.7000 6 9.90000 -31.1859 75.8806 2 37 13 104
1982355S09060 1983 106 SI MM DADAFY 1982-12-31 15:00:00 TS -31.4423 76.5261 main 2032 2023 _____P____P___ -1 -31.5814 76.3041 6 -31.3032 76.7481 2 36 13 99
1982355S09060 1983 106 SI MM DADAFY 1982-12-31 18:00:00 TS -31.5000 77.3000 reunion main 2039 2039 _____O____O___ -1 -31.6000 77.0000 6 9.90000 -31.4000 77.6000 2 35 14 87
1982355S09060 1983 106 SI MM DADAFY 1982-12-31 21:00:00 TS -31.3764 78.1623 main 2071 2071 _____P____P___ -1 -31.2560 77.9467 6 -31.4968 78.3779 2 33 15 82
1982355S09060 1983 106 SI MM DADAFY 1983-01-01 00:00:00 TS -31.2985 78.9943 reunion main 2104 2103 _____O____P___ -1 -31.0000 78.9000 6 9.90000 -31.5970 79.0886 2 32 13 94
1982355S09060 1983 106 SI MM DADAFY 1983-01-01 03:00:00 TS -31.4692 79.7078 main 2103 2090 _____P____P___ -1 -31.2397 79.6607 6 -31.6988 79.7550 2 31 13 113
1982355S09060 1983 106 SI MM DADAFY 1983-01-01 06:00:00 TS -31.8000 80.3500 main 2094 _____O____O___ -1 -31.8000 80.3000 6 9.90000 -31.8000 80.4000 1 30 13 121

About IBTrACS Database

This database is a web-friendly format of International Best Track Archive for Climate Stewardship (IBTrACS), a global best track data archive curated by NOAA dating back to 1842.

Updated: 2021-11-26